Data for 12/11/2008

Time Sea-Level Adjusted Pressure Absolute Pressure Temperature Relative Humidity Dew Point   
(mb) (inHg) (mb) (inHg) (C) (F) (%) (C) (F)
00:05 1024 30.24 853 25.19 4.6 40.3 56 -3.3 26
00:10 1024 30.24 853 25.19 4.6 40.3 56 -3.5 25.8
00:15 1024 30.24 853 25.19 4.6 40.3 56 -3.5 25.8
00:20 1024 30.24 853 25.19 4.5 40.1 57 -3.4 25.9
00:25 1023 30.21 853 25.19 4.4 39.9 56 -3.7 25.4
00:30 1023 30.21 853 25.19 4.5 40.1 55 -3.8 25.1
00:35 1023 30.21 853 25.19 4.5 40 55 -3.8 25.2
00:40 1023 30.21 853 25.19 4.5 40 54 -4 24.8
00:45 1023 30.21 853 25.19 4.6 40.3 54 -4 24.8
00:50 1023 30.21 853 25.19 4.7 40.4 53 -4 24.8
00:55 1023 30.21 853 25.19 4.7 40.5 54 -3.9 24.9
01:00 1023 30.21 853 25.19 4.6 40.3 54 -3.9 25.1
01:05 1023 30.21 853 25.19 4.4 39.9 56 -3.6 25.6
01:10 1023 30.21 853 25.19 4.1 39.4 55 -4 24.8
01:15 1023 30.21 853 25.19 4.5 40 54 -4 24.8
01:20 1023 30.21 853 25.19 4.6 40.2 54 -4 24.8
01:25 1024 30.24 853 25.19 4.5 40.2 54 -4 24.8
01:30 1024 30.24 853 25.19 4.5 40.1 55 -3.8 25.1
01:35 1024 30.24 853 25.19 4.3 39.7 55 -4 24.8
01:40 1024 30.24 853 25.19 4.2 39.6 56 -3.9 25
01:45 1024 30.24 853 25.19 4.1 39.3 55 -4 24.7
01:50 1024 30.24 853 25.19 4 39.3 57 -3.8 25.1
01:55 1024 30.24 853 25.19 3.8 38.8 58 -3.8 25.1
02:00 1024 30.24 853 25.19 3.6 38.6 58 -3.8 25.1
02:05 1024 30.24 853 25.19 3.6 38.4 58 -3.9 24.9
02:10 1024 30.24 853 25.19 3.5 38.4 57 -4.1 24.6
02:15 1024 30.24 853 25.19 3.6 38.4 57 -4.1 24.6
02:20 1024 30.24 853 25.19 3.6 38.5 57 -4.1 24.7
02:25 1024 30.24 853 25.19 3.6 38.5 56 -4.3 24.2
02:30 1024 30.24 853 25.19 3.6 38.5 56 -4.3 24.3
02:35 1024 30.24 853 25.19 3.5 38.4 56 -4.4 24.2
02:40 1024 30.24 853 25.19 3.4 38.2 56 -4.4 24
02:45 1024 30.24 853 25.19 3.4 38.2 54 -5.1 22.8
02:50 1024 30.24 853 25.19 3.7 38.7 53 -4.9 23.2
02:55 1024 30.24 854 25.22 3.6 38.6 54 -4.8 23.4
03:00 1024 30.24 854 25.22 3.5 38.2 55 -4.7 23.5
03:05 1024 30.24 854 25.22 3.3 38 55 -4.9 23.2
03:10 1024 30.24 854 25.22 3.3 37.9 54 -5.2 22.6
03:15 1024 30.24 854 25.22 3.4 38.1 53 -5.3 22.5
03:20 1024 30.24 854 25.22 3.4 38.1 52 -5.5 22.2
03:25 1024 30.24 854 25.22 3.4 38.1 52 -5.5 22.1
03:30 1024 30.24 854 25.22 3.3 38 52 -5.6 21.9
03:35 1024 30.24 854 25.22 3.3 38 53 -5.4 22.2
03:40 1024 30.24 854 25.22 3.1 37.7 54 -5.2 22.7
03:45 1024 30.24 854 25.22 2.9 37.2 54 -5.4 22.2
03:50 1024 30.24 854 25.22 2.9 37.3 54 -5.4 22.3
03:55 1025 30.27 854 25.22 2.8 37.1 55 -5.4 22.3
04:00 1025 30.27 854 25.22 2.7 36.8 55 -5.5 22.1
04:05 1025 30.27 854 25.22 2.7 36.8 54 -5.7 21.7
04:10 1025 30.27 854 25.22 2.8 37.1 52 -6 21.2
04:15 1024 30.24 854 25.22 3.1 37.5 52 -5.9 21.4
04:20 1024 30.24 854 25.22 3.1 37.6 52 -5.9 21.4
04:25 1024 30.24 854 25.22 3.1 37.5 52 -5.9 21.4
04:30 1025 30.27 854 25.22 3.1 37.7 52 -5.8 21.6
04:35 1025 30.27 854 25.22 3.1 37.6 53 -5.7 21.8
04:40 1025 30.27 854 25.22 2.9 37.3 53 -5.7 21.7
04:45 1025 30.27 854 25.22 2.7 36.9 54 -5.7 21.7
04:50 1025 30.27 854 25.22 2.6 36.8 54 -5.8 21.5
04:55 1025 30.27 854 25.22 2.7 36.8 54 -5.7 21.8
05:00 1025 30.27 854 25.22 2.5 36.6 55 -5.6 21.9
05:05 1025 30.27 854 25.22 2.4 36.3 55 -5.7 21.8
05:10 1025 30.27 854 25.22 2.2 36 57 -5.5 22
05:15 1025 30.27 854 25.22 2 35.6 58 -5.5 22.2
05:20 1025 30.27 854 25.22 1.6 34.8 59 -5.6 21.9
05:25 1025 30.27 854 25.22 1.6 34.8 58 -5.8 21.6
05:30 1025 30.27 854 25.22 1.6 34.9 59 -5.5 22.1
05:35 1025 30.27 854 25.22 1.5 34.7 59 -5.7 21.8
05:40 1025 30.27 854 25.22 1.5 34.7 59 -5.7 21.8
05:45 1025 30.27 854 25.22 1.4 34.6 59 -5.7 21.7
05:50 1025 30.27 854 25.22 1.4 34.5 59 -5.9 21.4
05:55 1025 30.27 854 25.22 1 33.8 60 -6 21.2
06:00 1025 30.27 854 25.22 0.8 33.5 59 -6.3 20.7
06:05 1025 30.27 854 25.22 1 33.7 59 -6.2 20.9
06:10 1025 30.27 854 25.22 0.8 33.4 58 -6.6 20.1
06:15 1025 30.27 854 25.22 0.9 33.6 57 -6.7 20
06:20 1025 30.27 854 25.22 0.9 33.7 57 -6.7 20
06:25 1025 30.27 854 25.22 0.9 33.7 57 -6.6 20.1
06:30 1025 30.27 854 25.22 0.9 33.6 57 -6.8 19.8
06:35 1025 30.27 854 25.22 1.1 34 56 -6.6 20
06:40 1025 30.27 854 25.22 1 33.8 57 -6.6 20.1
06:45 1025 30.27 854 25.22 1.1 34 56 -6.7 19.9
06:50 1025 30.27 854 25.22 1.1 34.1 57 -6.5 20.4
06:55 1025 30.27 854 25.22 1.1 34 57 -6.5 20.4
07:00 1025 30.27 854 25.22 1.1 34 57 -6.5 20.3
07:05 1025 30.27 854 25.22 1.1 33.9 57 -6.5 20.3
07:10 1025 30.27 855 25.25 1 33.9 57 -6.5 20.3
07:15 1025 30.27 855 25.25 0.8 33.5 58 -6.4 20.4
07:20 1025 30.27 855 25.25 0.8 33.4 58 -6.5 20.2
07:25 1025 30.27 855 25.25 0.8 33.4 58 -6.6 20.1
07:30 1025 30.27 855 25.25 0.8 33.4 58 -6.5 20.3
07:35 1025 30.27 855 25.25 0.6 33.2 58 -6.7 19.9
07:40 1025 30.27 855 25.25 -0.2 31.6 63 -6.5 20.3
07:45 1025 30.27 855 25.25 -0.8 30.5 64 -6.8 19.7
07:50 1025 30.27 855 25.25 -1 30.1 64 -7 19.4
07:55 1025 30.27 854 25.22 -1.1 29.9 64 -7.1 19.3
08:00 1025 30.27 854 25.22 -1.5 29.2 66 -7.1 19.2
08:05 1025 30.27 855 25.25 -1.9 28.5 64 -7.8 17.9
08:10 1025 30.27 855 25.25 -1.1 30 60 -8 17.7
08:15 1025 30.27 855 25.25 -0.5 31.1 57 -8.1 17.5
08:20 1025 30.27 855 25.25 -0.1 31.9 56 -7.7 18.1
08:25 1025 30.27 855 25.25 0.3 32.6 55 -7.8 18
08:30 1025 30.27 855 25.25 0.8 33.4 54 -7.6 18.3
08:35 1025 30.27 855 25.25 1.2 34.1 52 -7.6 18.3
08:40 1026 30.3 855 25.25 1.4 34.5 51 -7.6 18.4
08:45 1026 30.3 855 25.25 1.7 35 49 -7.8 17.9
08:50 1026 30.3 855 25.25 2.1 35.8 49 -7.5 18.6
08:55 1026 30.3 855 25.25 2.4 36.3 47 -7.7 18.1
09:00 1026 30.3 855 25.25 2.7 36.8 47 -7.4 18.6
09:05 1026 30.3 855 25.25 2.8 37.1 46 -7.6 18.3
09:10 1026 30.3 855 25.25 2.9 37.2 47 -7.5 18.6
09:15 1026 30.3 855 25.25 3.2 37.8 45 -7.5 18.5
09:20 1026 30.3 855 25.25 3.5 38.3 44 -7.5 18.4
09:25 1026 30.3 855 25.25 3.5 38.2 44 -7.6 18.4
09:30 1026 30.3 855 25.25 3.5 38.3 44 -7.6 18.4
09:35 1026 30.3 855 25.25 3.5 38.3 48 -6.6 20.1
09:40 1026 30.3 855 25.25 2.8 37.1 46 -7.7 18.2
09:45 1026 30.3 855 25.25 2.2 35.9 49 -7.4 18.7
09:50 1026 30.3 855 25.25 2.2 36 48 -7.7 18.2
09:55 1026 30.3 855 25.25 2.7 36.8 47 -7.5 18.5
10:00 1026 30.3 855 25.25 2.9 37.3 46 -7.6 18.3
10:05 1026 30.3 855 25.25 3 37.5 46 -7.4 18.6
10:10 1026 30.3 855 25.25 3.2 37.8 45 -7.6 18.3
10:15 1026 30.3 855 25.25 3.6 38.4 42 -8.3 17.1
10:20 1026 30.3 855 25.25 4.2 39.5 41 -7.9 17.7
10:25 1026 30.3 855 25.25 4.3 39.8 40 -8.1 17.4
10:30 1026 30.3 855 25.25 4.5 40 40 -7.9 17.8
10:35 1026 30.3 855 25.25 4.3 39.8 41 -7.8 18
10:40 1026 30.3 855 25.25 4.4 40 41 -7.6 18.3
10:45 1026 30.3 855 25.25 5.1 41.2 38 -7.9 17.8
10:50 1026 30.3 855 25.25 5.3 41.6 39 -7.5 18.4
10:55 1026 30.3 855 25.25 5.4 41.6 38 -7.7 18.1
11:00 1026 30.3 855 25.25 5.5 41.9 37 -8.1 17.3
11:05 1026 30.3 855 25.25 5.9 42.6 36 -7.9 17.8
11:10 1026 30.3 855 25.25 5.9 42.7 36 -7.8 17.9
11:15 1026 30.3 855 25.25 5.9 42.6 37 -7.7 18.2
11:20 1026 30.3 855 25.25 5.7 42.2 38 -7.4 18.7
11:25 1026 30.3 855 25.25 5.9 42.6 37 -7.8 18
11:30 1026 30.3 855 25.25 5.9 42.6 37 -7.7 18.1
11:35 1026 30.3 855 25.25 5.9 42.6 36 -8.2 17.3
11:40 1025 30.27 855 25.25 5.8 42.4 36 -8 17.5
11:45 1025 30.27 855 25.25 6 42.7 36 -7.9 17.7
11:50 1025 30.27 855 25.25 6.1 42.9 37 -7.7 18.1
11:55 1025 30.27 855 25.25 6.1 43 36 -7.9 17.7
12:00 1025 30.27 855 25.25 6.3 43.4 35 -8.2 17.3
12:05 1025 30.27 854 25.22 6.4 43.5 35 -8.1 17.4
12:10 1025 30.27 854 25.22 6.5 43.6 35 -8 17.6
12:15 1025 30.27 854 25.22 6.5 43.8 34 -8.4 16.9
12:20 1025 30.27 854 25.22 7 44.7 33 -8.2 17.3
12:25 1025 30.27 854 25.22 6.8 44.3 35 -7.4 18.6
12:30 1025 30.27 854 25.22 6.9 44.5 33 -8.1 17.4
12:35 1025 30.27 854 25.22 7.1 44.8 33 -8.1 17.5
12:40 1025 30.27 854 25.22 7.3 45.1 35 -7.1 19.1
12:45 1025 30.27 854 25.22 7.4 45.4 33 -7.6 18.3
12:50 1025 30.27 854 25.22 7.4 45.3 33 -7.7 18.1
12:55 1025 30.27 854 25.22 7.1 44.7 35 -7.5 18.4
13:00 1025 30.27 854 25.22 6.8 44.2 34 -7.9 17.7
13:05 1025 30.27 854 25.22 6.7 44.1 35 -7.8 17.9
13:10 1025 30.27 854 25.22 6.5 43.8 36 -7.6 18.3
13:15 1025 30.27 854 25.22 6.5 43.7 37 -7.2 19
13:20 1025 30.27 854 25.22 6.6 43.9 35 -7.7 18.1
13:25 1025 30.27 854 25.22 6.5 43.7 39 -6.4 20.5
13:30 1025 30.27 854 25.22 5.3 41.6 39 -7.5 18.4
13:35 1025 30.27 854 25.22 5.4 41.7 39 -7.5 18.5
13:40 1025 30.27 854 25.22 6 42.8 37 -7.8 18
13:45 1024 30.24 854 25.22 6 42.8 38 -7.3 18.8
13:50 1024 30.24 854 25.22 5.7 42.3 38 -7.6 18.3
13:55 1024 30.24 854 25.22 5.2 41.4 39 -7.6 18.3
14:00 1024 30.24 854 25.22 4.9 40.9 40 -7.5 18.6
14:05 1024 30.24 854 25.22 5.6 42.1 38 -7.8 18
14:10 1024 30.24 854 25.22 5.4 41.7 39 -7.6 18.4
14:15 1024 30.24 854 25.22 5.5 41.9 37 -8 17.6
14:20 1024 30.24 854 25.22 6.1 43 35 -8.1 17.4
14:25 1024 30.24 854 25.22 6.3 43.3 34 -8.6 16.5
14:30 1024 30.24 853 25.19 5.9 42.5 35 -8.4 16.9
14:35 1024 30.24 853 25.19 5.4 41.7 35 -8.8 16.2
14:40 1024 30.24 853 25.19 5.4 41.8 35 -8.8 16.1
14:45 1024 30.24 853 25.19 5.7 42.2 35 -8.5 16.6
14:50 1024 30.24 853 25.19 5.4 41.7 36 -8.4 17
14:55 1024 30.24 853 25.19 5.1 41.1 36 -8.7 16.3
15:00 1024 30.24 853 25.19 4.5 40 38 -8.5 16.6
15:05 1024 30.24 853 25.19 4.4 39.8 39 -8.5 16.7
15:10 1024 30.24 853 25.19 4.3 39.7 38 -8.8 16.1
15:15 1024 30.24 853 25.19 4.6 40.2 36 -9.4 15.1
15:20 1024 30.24 853 25.19 4.9 40.8 35 -9.3 15.2
15:25 1024 30.24 853 25.19 4.4 40 37 -9.1 15.6
15:30 1024 30.24 853 25.19 4.1 39.5 37 -9.4 15.1
15:35 1024 30.24 853 25.19 3.9 38.9 39 -9 15.9
15:40 1024 30.24 853 25.19 3.5 38.3 42 -8.3 17
15:45 1024 30.24 853 25.19 3.2 37.7 43 -8.4 16.9
15:50 1024 30.24 853 25.19 3.4 38.2 42 -8.4 16.9
15:55 1024 30.24 853 25.19 3.7 38.7 44 -7.4 18.6
16:00 1024 30.24 853 25.19 3.7 38.7 45 -7.1 19.2
16:05 1024 30.24 853 25.19 3.2 37.8 45 -7.7 18.1
16:10 1024 30.24 853 25.19 3.1 37.5 45 -7.8 17.9
16:15 1024 30.24 853 25.19 2.3 36.2 45 -8.3 17
16:20 1024 30.24 853 25.19 1.9 35.4 47 -8.2 17.2
16:25 1024 30.24 853 25.19 1.8 35.3 47 -8.3 17.1
16:30 1024 30.24 853 25.19 1.8 35.3 47 -8.3 17.1
16:35 1023 30.21 853 25.19 1.9 35.5 48 -7.9 17.7
16:40 1023 30.21 853 25.19 1.9 35.5 49 -7.6 18.3
16:45 1023 30.21 853 25.19 1.7 35.1 50 -7.6 18.3
16:50 1023 30.21 853 25.19 1.5 34.7 50 -7.7 18.1
16:55 1023 30.21 853 25.19 1.5 34.6 50 -7.7 18.1
17:00 1023 30.21 853 25.19 1.3 34.4 50 -8.1 17.5
17:05 1023 30.21 852 25.16 1.5 34.8 49 -8.1 17.4
17:10 1023 30.21 852 25.16 1.5 34.7 50 -7.9 17.7
17:15 1023 30.21 852 25.16 1.1 34.1 52 -7.7 18.1
17:20 1023 30.21 852 25.16 0.8 33.5 53 -7.6 18.3
17:25 1023 30.21 852 25.16 0.6 33 53 -7.8 17.9
17:30 1023 30.21 852 25.16 0.5 32.9 54 -7.7 18.2
17:35 1023 30.21 852 25.16 0.3 32.5 55 -7.7 18.1
17:40 1023 30.21 852 25.16 0.2 32.4 56 -7.6 18.3
17:45 1023 30.21 852 25.16 -0.1 31.8 56 -7.9 17.8
17:50 1023 30.21 852 25.16 -0.1 31.8 55 -8.1 17.4
17:55 1023 30.21 852 25.16 0.1 32.2 54 -8.1 17.5
18:00 1023 30.21 852 25.16 0 32 54 -8.1 17.4
18:05 1023 30.21 852 25.16 -0.2 31.7 55 -8.2 17.3
18:10 1023 30.21 852 25.16 -0.3 31.5 55 -8.2 17.3
18:15 1023 30.21 852 25.16 -0.4 31.3 55 -8.3 17.1
18:20 1023 30.21 852 25.16 -0.4 31.3 55 -8.4 16.9
18:25 1023 30.21 852 25.16 -0.4 31.3 55 -8.5 16.8
18:30 1023 30.21 852 25.16 -0.4 31.3 52 -9.1 15.6
18:35 1023 30.21 852 25.16 -0.1 31.9 50 -9.2 15.5
18:40 1023 30.21 852 25.16 0.1 32.1 50 -9.1 15.7
18:45 1023 30.21 852 25.16 0 32.1 51 -9 15.8
18:50 1023 30.21 852 25.16 -0.1 31.9 51 -8.9 15.9
18:55 1023 30.21 852 25.16 -0.2 31.7 53 -8.7 16.4
19:00 1023 30.21 852 25.16 -0.2 31.6 53 -8.6 16.6
19:05 1023 30.21 852 25.16 -0.4 31.3 55 -8.4 16.8
19:10 1023 30.21 852 25.16 -0.6 31 55 -8.5 16.7
19:15 1023 30.21 852 25.16 -0.3 31.4 54 -8.5 16.8
19:20 1023 30.21 852 25.16 -0.2 31.6 53 -8.8 16.2
19:25 1022 30.18 852 25.16 -0.3 31.5 50 -9.4 15.2
19:30 1022 30.18 852 25.16 0.4 32.8 43 -10.8 12.6
19:35 1022 30.18 852 25.16 1.1 33.9 43 -10.1 13.8
19:40 1022 30.18 852 25.16 0.7 33.3 45 -9.9 14.2
19:45 1022 30.18 852 25.16 0.3 32.5 47 -9.9 14.2
19:50 1022 30.18 852 25.16 0.1 32.2 46 -10.1 13.8
19:55 1022 30.18 852 25.16 -0 31.9 47 -10 14.1
20:00 1022 30.18 852 25.16 0.1 32.2 46 -10.3 13.5
20:05 1022 30.18 852 25.16 0.3 32.5 45 -10.2 13.6
20:10 1022 30.18 852 25.16 0.4 32.7 45 -10.1 13.8
20:15 1022 30.18 852 25.16 0.4 32.7 46 -10 13.9
20:20 1022 30.18 852 25.16 0.2 32.4 45 -10.2 13.6
20:25 1022 30.18 852 25.16 -0.2 31.6 49 -9.6 14.6
20:30 1022 30.18 852 25.16 -0.6 31 49 -10 14
20:35 1022 30.18 852 25.16 -0.7 30.7 51 -9.7 14.6
20:40 1022 30.18 852 25.16 -0.4 31.3 50 -9.7 14.5
20:45 1022 30.18 852 25.16 -0.7 30.8 52 -9.5 15
20:50 1022 30.18 851 25.13 -0.9 30.4 53 -9.4 15.1
20:55 1022 30.18 851 25.13 -1.3 29.7 53 -9.6 14.6
21:00 1022 30.18 851 25.13 -1.3 29.7 54 -9.5 14.8
21:05 1022 30.18 851 25.13 -1.4 29.5 53 -9.7 14.5
21:10 1022 30.18 851 25.13 -1.1 30 53 -9.5 14.9
21:15 1022 30.18 851 25.13 -1 30.1 53 -9.3 15.2
21:20 1022 30.18 851 25.13 -1 30.2 52 -9.7 14.5
21:25 1022 30.18 851 25.13 -0.7 30.7 51 -9.7 14.5
21:30 1022 30.18 851 25.13 -0.6 30.9 52 -9.2 15.4
21:35 1022 30.18 851 25.13 -0.8 30.6 51 -9.6 14.7
21:40 1022 30.18 851 25.13 -0.7 30.8 52 -9.4 15.1
21:45 1022 30.18 851 25.13 -1.2 29.8 53 -9.5 14.9
21:50 1022 30.18 851 25.13 -1.4 29.5 53 -9.7 14.6
21:55 1022 30.18 851 25.13 -1.3 29.7 53 -9.7 14.5
22:00 1022 30.18 851 25.13 -1.2 29.8 55 -9.1 15.7
22:05 1022 30.18 851 25.13 -1.8 28.7 56 -9.6 14.8
22:10 1022 30.18 851 25.13 -1.9 28.6 55 -9.7 14.5
22:15 1022 30.18 851 25.13 -1.5 29.4 54 -9.7 14.6
22:20 1022 30.18 851 25.13 -1 30.2 51 -9.9 14.1
22:25 1022 30.18 851 25.13 -1.2 29.9 53 -9.6 14.8
22:30 1022 30.18 851 25.13 -2 28.5 56 -9.6 14.7
22:35 1022 30.18 851 25.13 -2.2 28 57 -9.6 14.7
22:40 1022 30.18 851 25.13 -2.3 27.9 56 -9.8 14.4
22:45 1022 30.18 851 25.13 -2.4 27.8 58 -9.6 14.7
22:50 1022 30.18 851 25.13 -2.9 26.7 62 -9.3 15.3
22:55 1022 30.18 851 25.13 -3.3 26.1 60 -9.9 14.1
23:00 1022 30.18 851 25.13 -2.9 26.7 58 -10.1 13.9
23:05 1022 30.18 851 25.13 -2.3 27.9 55 -10 13.9
23:10 1022 30.18 851 25.13 -1.8 28.8 57 -9.1 15.6
23:15 1022 30.18 851 25.13 -2 28.5 55 -9.9 14.2
23:20 1022 30.18 851 25.13 -2.5 27.5 60 -9.2 15.4
23:25 1022 30.18 851 25.13 -3.2 26.2 63 -9.3 15.3
23:30 1022 30.18 851 25.13 -3.1 26.5 61 -9.5 14.8
23:35 1022 30.18 851 25.13 -2.8 27 58 -9.9 14.1
23:40 1022 30.18 851 25.13 -2.5 27.5 59 -9.5 14.9
23:45 1021 30.15 851 25.13 -2.5 27.5 57 -10 14
23:50 1021 30.15 851 25.13 -2.6 27.3 57 -10.1 13.9
23:55 1021 30.15 851 25.13 -2.7 27.1 57 -10.2 13.6
24:00 1021 30.15 851 25.13 -2.7 27.1 57 -10 14